sensor_id;sensor_type;location;lat;lon;timestamp;temperature;humidity
13856;DHT22;6998;53.608;9.958;2023-07-31T00:01:07;15.40;99.90
13856;DHT22;6998;53.608;9.958;2023-07-31T00:03:34;15.50;99.90
13856;DHT22;6998;53.608;9.958;2023-07-31T00:06:00;15.60;99.90
13856;DHT22;6998;53.608;9.958;2023-07-31T00:08:28;15.60;99.90
13856;DHT22;6998;53.608;9.958;2023-07-31T00:10:55;15.60;99.90
13856;DHT22;6998;53.608;9.958;2023-07-31T00:13:22;15.60;99.90
13856;DHT22;6998;53.608;9.958;2023-07-31T00:15:48;15.50;99.90
13856;DHT22;6998;53.608;9.958;2023-07-31T00:18:15;15.50;99.90
13856;DHT22;6998;53.608;9.958;2023-07-31T00:20:42;15.60;99.90
13856;DHT22;6998;53.608;9.958;2023-07-31T00:23:08;15.60;99.90
13856;DHT22;6998;53.608;9.958;2023-07-31T00:25:37;15.60;99.90
13856;DHT22;6998;53.608;9.958;2023-07-31T00:28:03;15.60;99.90
13856;DHT22;6998;53.608;9.958;2023-07-31T00:30:30;15.60;99.90
13856;DHT22;6998;53.608;9.958;2023-07-31T00:32:57;15.60;99.90
13856;DHT22;6998;53.608;9.958;2023-07-31T00:35:24;15.50;99.90
13856;DHT22;6998;53.608;9.958;2023-07-31T00:37:50;15.60;99.90
13856;DHT22;6998;53.608;9.958;2023-07-31T00:40:17;15.60;99.90
13856;DHT22;6998;53.608;9.958;2023-07-31T00:42:45;15.60;99.90
13856;DHT22;6998;53.608;9.958;2023-07-31T00:45:12;15.60;99.90
13856;DHT22;6998;53.608;9.958;2023-07-31T00:47:39;15.60;99.90
13856;DHT22;6998;53.608;9.958;2023-07-31T00:50:07;15.60;99.90
13856;DHT22;6998;53.608;9.958;2023-07-31T00:52:34;15.60;99.90
13856;DHT22;6998;53.608;9.958;2023-07-31T00:55:01;15.50;99.90
13856;DHT22;6998;53.608;9.958;2023-07-31T00:57:28;15.50;99.90
13856;DHT22;6998;53.608;9.958;2023-07-31T00:59:56;15.30;99.90
13856;DHT22;6998;53.608;9.958;2023-07-31T01:02:23;15.30;99.90
13856;DHT22;6998;53.608;9.958;2023-07-31T01:04:50;15.30;99.90
13856;DHT22;6998;53.608;9.958;2023-07-31T01:07:20;15.30;99.90
13856;DHT22;6998;53.608;9.958;2023-07-31T01:09:52;15.40;99.90
13856;DHT22;6998;53.608;9.958;2023-07-31T01:12:23;15.40;99.90
13856;DHT22;6998;53.608;9.958;2023-07-31T01:15:03;15.40;99.90
13856;DHT22;6998;53.608;9.958;2023-07-31T01:17:30;15.40;99.90
13856;DHT22;6998;53.608;9.958;2023-07-31T01:20:01;15.40;99.90
13856;DHT22;6998;53.608;9.958;2023-07-31T01:23:07;15.30;99.90
13856;DHT22;6998;53.608;9.958;2023-07-31T01:25:50;15.30;99.90
13856;DHT22;6998;53.608;9.958;2023-07-31T01:28:20;15.30;99.90
13856;DHT22;6998;53.608;9.958;2023-07-31T01:30:48;15.30;99.90
13856;DHT22;6998;53.608;9.958;2023-07-31T01:33:16;15.30;99.90
13856;DHT22;6998;53.608;9.958;2023-07-31T01:35:44;15.40;99.90
13856;DHT22;6998;53.608;9.958;2023-07-31T01:38:11;15.40;99.90
13856;DHT22;6998;53.608;9.958;2023-07-31T01:40:41;15.40;99.90
13856;DHT22;6998;53.608;9.958;2023-07-31T01:43:09;15.40;99.90
13856;DHT22;6998;53.608;9.958;2023-07-31T01:45:36;15.40;99.90
13856;DHT22;6998;53.608;9.958;2023-07-31T01:48:03;15.40;99.90
13856;DHT22;6998;53.608;9.958;2023-07-31T01:50:29;15.40;99.90
13856;DHT22;6998;53.608;9.958;2023-07-31T01:52:56;15.30;99.90
13856;DHT22;6998;53.608;9.958;2023-07-31T01:55:23;15.30;99.90
13856;DHT22;6998;53.608;9.958;2023-07-31T01:57:49;15.30;99.90
13856;DHT22;6998;53.608;9.958;2023-07-31T02:00:19;15.30;99.90
13856;DHT22;6998;53.608;9.958;2023-07-31T02:02:46;15.30;99.90
13856;DHT22;6998;53.608;9.958;2023-07-31T02:05:12;15.30;99.90
13856;DHT22;6998;53.608;9.958;2023-07-31T02:07:39;15.30;99.90
13856;DHT22;6998;53.608;9.958;2023-07-31T02:10:06;15.30;99.90
13856;DHT22;6998;53.608;9.958;2023-07-31T02:12:33;15.30;99.90
13856;DHT22;6998;53.608;9.958;2023-07-31T02:15:00;15.30;99.90
13856;DHT22;6998;53.608;9.958;2023-07-31T02:17:28;15.30;99.90
13856;DHT22;6998;53.608;9.958;2023-07-31T02:19:55;15.40;99.90
13856;DHT22;6998;53.608;9.958;2023-07-31T02:22:21;15.50;99.90
13856;DHT22;6998;53.608;9.958;2023-07-31T02:24:48;15.50;99.90
13856;DHT22;6998;53.608;9.958;2023-07-31T02:27:15;15.50;99.90
13856;DHT22;6998;53.608;9.958;2023-07-31T02:29:42;15.50;99.90
13856;DHT22;6998;53.608;9.958;2023-07-31T02:32:08;15.50;99.90
13856;DHT22;6998;53.608;9.958;2023-07-31T02:34:35;15.60;99.90
13856;DHT22;6998;53.608;9.958;2023-07-31T02:37:02;15.60;99.90
13856;DHT22;6998;53.608;9.958;2023-07-31T02:39:29;15.70;99.90
13856;DHT22;6998;53.608;9.958;2023-07-31T02:41:56;15.60;99.90
13856;DHT22;6998;53.608;9.958;2023-07-31T02:44:22;15.60;99.90
13856;DHT22;6998;53.608;9.958;2023-07-31T02:46:49;15.70;99.90
13856;DHT22;6998;53.608;9.958;2023-07-31T02:49:16;15.60;99.90
13856;DHT22;6998;53.608;9.958;2023-07-31T02:51:44;15.60;99.90
13856;DHT22;6998;53.608;9.958;2023-07-31T02:54:10;15.60;99.90
13856;DHT22;6998;53.608;9.958;2023-07-31T02:56:37;15.60;99.90
13856;DHT22;6998;53.608;9.958;2023-07-31T02:59:04;15.60;99.90
13856;DHT22;6998;53.608;9.958;2023-07-31T03:01:31;15.60;99.90
13856;DHT22;6998;53.608;9.958;2023-07-31T03:03:57;15.60;99.90
13856;DHT22;6998;53.608;9.958;2023-07-31T03:06:24;15.60;99.90
13856;DHT22;6998;53.608;9.958;2023-07-31T03:08:53;15.70;99.90
13856;DHT22;6998;53.608;9.958;2023-07-31T03:11:20;15.70;99.90
13856;DHT22;6998;53.608;9.958;2023-07-31T03:13:47;15.60;99.90
13856;DHT22;6998;53.608;9.958;2023-07-31T03:16:13;15.70;99.90
13856;DHT22;6998;53.608;9.958;2023-07-31T03:18:40;15.70;99.90
13856;DHT22;6998;53.608;9.958;2023-07-31T03:21:07;15.70;99.90
13856;DHT22;6998;53.608;9.958;2023-07-31T03:23:33;15.70;99.90
13856;DHT22;6998;53.608;9.958;2023-07-31T03:26:03;15.70;99.90
13856;DHT22;6998;53.608;9.958;2023-07-31T03:28:30;15.70;99.90
13856;DHT22;6998;53.608;9.958;2023-07-31T03:30:56;15.70;99.90
13856;DHT22;6998;53.608;9.958;2023-07-31T03:33:23;15.70;99.90
13856;DHT22;6998;53.608;9.958;2023-07-31T03:35:50;15.80;99.90
13856;DHT22;6998;53.608;9.958;2023-07-31T03:38:17;15.80;99.90
13856;DHT22;6998;53.608;9.958;2023-07-31T03:40:43;15.80;99.90
13856;DHT22;6998;53.608;9.958;2023-07-31T03:43:12;15.80;99.90
13856;DHT22;6998;53.608;9.958;2023-07-31T03:45:39;15.80;99.90
13856;DHT22;6998;53.608;9.958;2023-07-31T03:48:06;15.90;99.90
13856;DHT22;6998;53.608;9.958;2023-07-31T03:50:33;15.90;99.90
13856;DHT22;6998;53.608;9.958;2023-07-31T03:52:59;15.90;99.90
13856;DHT22;6998;53.608;9.958;2023-07-31T03:55:26;15.90;99.90
13856;DHT22;6998;53.608;9.958;2023-07-31T03:57:53;15.90;99.90
13856;DHT22;6998;53.608;9.958;2023-07-31T04:00:21;15.90;99.90
13856;DHT22;6998;53.608;9.958;2023-07-31T04:02:48;16.00;99.90
13856;DHT22;6998;53.608;9.958;2023-07-31T04:05:15;16.00;99.90
13856;DHT22;6998;53.608;9.958;2023-07-31T04:07:41;16.00;99.90
13856;DHT22;6998;53.608;9.958;2023-07-31T04:10:08;16.00;99.90
13856;DHT22;6998;53.608;9.958;2023-07-31T04:12:35;16.10;99.90
13856;DHT22;6998;53.608;9.958;2023-07-31T04:15:02;16.10;99.90
13856;DHT22;6998;53.608;9.958;2023-07-31T04:17:30;16.10;99.90
13856;DHT22;6998;53.608;9.958;2023-07-31T04:19:57;16.10;99.90
13856;DHT22;6998;53.608;9.958;2023-07-31T04:22:24;16.10;99.90
13856;DHT22;6998;53.608;9.958;2023-07-31T04:24:50;16.00;99.90
13856;DHT22;6998;53.608;9.958;2023-07-31T04:27:17;16.10;99.90
13856;DHT22;6998;53.608;9.958;2023-07-31T04:29:44;16.00;99.90
13856;DHT22;6998;53.608;9.958;2023-07-31T04:32:12;16.00;99.90
13856;DHT22;6998;53.608;9.958;2023-07-31T04:34:42;16.00;99.90
13856;DHT22;6998;53.608;9.958;2023-07-31T04:37:09;16.10;99.90
13856;DHT22;6998;53.608;9.958;2023-07-31T04:39:36;16.10;99.90
13856;DHT22;6998;53.608;9.958;2023-07-31T04:42:03;16.10;99.90
13856;DHT22;6998;53.608;9.958;2023-07-31T04:44:29;16.10;99.90
13856;DHT22;6998;53.608;9.958;2023-07-31T04:46:56;16.20;99.90
13856;DHT22;6998;53.608;9.958;2023-07-31T04:49:23;16.10;99.90
13856;DHT22;6998;53.608;9.958;2023-07-31T04:51:51;16.20;99.90
13856;DHT22;6998;53.608;9.958;2023-07-31T04:54:17;16.20;99.90
13856;DHT22;6998;53.608;9.958;2023-07-31T04:56:44;16.20;99.90
13856;DHT22;6998;53.608;9.958;2023-07-31T04:59:11;16.20;99.90
13856;DHT22;6998;53.608;9.958;2023-07-31T05:01:38;16.20;99.90
13856;DHT22;6998;53.608;9.958;2023-07-31T05:04:04;16.20;99.90
13856;DHT22;6998;53.608;9.958;2023-07-31T05:06:32;16.10;99.90
13856;DHT22;6998;53.608;9.958;2023-07-31T05:09:00;16.10;99.90
13856;DHT22;6998;53.608;9.958;2023-07-31T05:11:27;16.20;99.90
13856;DHT22;6998;53.608;9.958;2023-07-31T05:13:53;16.20;99.90
13856;DHT22;6998;53.608;9.958;2023-07-31T05:16:20;16.20;99.90
13856;DHT22;6998;53.608;9.958;2023-07-31T05:18:47;16.20;99.90
13856;DHT22;6998;53.608;9.958;2023-07-31T05:21:14;16.20;99.90
13856;DHT22;6998;53.608;9.958;2023-07-31T05:23:40;16.20;99.90
13856;DHT22;6998;53.608;9.958;2023-07-31T05:26:08;16.20;99.90
13856;DHT22;6998;53.608;9.958;2023-07-31T05:28:36;16.10;99.90
13856;DHT22;6998;53.608;9.958;2023-07-31T05:31:03;16.20;99.90
13856;DHT22;6998;53.608;9.958;2023-07-31T05:33:30;16.20;99.90
13856;DHT22;6998;53.608;9.958;2023-07-31T05:35:57;16.20;99.90
13856;DHT22;6998;53.608;9.958;2023-07-31T05:38:25;16.20;99.90
13856;DHT22;6998;53.608;9.958;2023-07-31T05:40:52;16.20;99.90
13856;DHT22;6998;53.608;9.958;2023-07-31T05:43:20;16.20;99.90
13856;DHT22;6998;53.608;9.958;2023-07-31T05:45:47;16.20;99.90
13856;DHT22;6998;53.608;9.958;2023-07-31T05:48:14;16.30;99.90
13856;DHT22;6998;53.608;9.958;2023-07-31T05:50:40;16.30;99.90
13856;DHT22;6998;53.608;9.958;2023-07-31T05:53:07;16.40;99.90
13856;DHT22;6998;53.608;9.958;2023-07-31T05:55:34;16.40;99.90
13856;DHT22;6998;53.608;9.958;2023-07-31T05:58:01;16.50;99.90
13856;DHT22;6998;53.608;9.958;2023-07-31T06:00:29;16.40;99.90
13856;DHT22;6998;53.608;9.958;2023-07-31T06:02:56;16.50;99.90
13856;DHT22;6998;53.608;9.958;2023-07-31T06:05:23;16.50;99.90
13856;DHT22;6998;53.608;9.958;2023-07-31T06:07:50;16.50;99.90
13856;DHT22;6998;53.608;9.958;2023-07-31T06:10:16;16.60;99.90
13856;DHT22;6998;53.608;9.958;2023-07-31T06:12:44;16.60;99.90
13856;DHT22;6998;53.608;9.958;2023-07-31T06:15:10;16.60;99.90
13856;DHT22;6998;53.608;9.958;2023-07-31T06:17:38;16.60;99.90
13856;DHT22;6998;53.608;9.958;2023-07-31T06:20:07;16.60;99.90
13856;DHT22;6998;53.608;9.958;2023-07-31T06:22:34;16.70;99.90
13856;DHT22;6998;53.608;9.958;2023-07-31T06:25:00;16.70;99.90
13856;DHT22;6998;53.608;9.958;2023-07-31T06:27:27;16.70;99.90
13856;DHT22;6998;53.608;9.958;2023-07-31T06:29:54;16.70;99.90
13856;DHT22;6998;53.608;9.958;2023-07-31T06:32:20;16.70;99.90
13856;DHT22;6998;53.608;9.958;2023-07-31T06:34:49;16.60;99.90
13856;DHT22;6998;53.608;9.958;2023-07-31T06:37:15;16.70;99.90
13856;DHT22;6998;53.608;9.958;2023-07-31T06:39:42;16.70;99.90
13856;DHT22;6998;53.608;9.958;2023-07-31T06:42:09;16.70;99.90
13856;DHT22;6998;53.608;9.958;2023-07-31T06:44:35;16.70;99.90
13856;DHT22;6998;53.608;9.958;2023-07-31T06:47:02;16.60;99.90
13856;DHT22;6998;53.608;9.958;2023-07-31T06:49:29;16.60;99.90
13856;DHT22;6998;53.608;9.958;2023-07-31T06:51:57;16.60;99.90
13856;DHT22;6998;53.608;9.958;2023-07-31T06:54:24;16.70;99.90
13856;DHT22;6998;53.608;9.958;2023-07-31T06:56:50;16.70;99.90
13856;DHT22;6998;53.608;9.958;2023-07-31T06:59:17;16.80;99.90
13856;DHT22;6998;53.608;9.958;2023-07-31T07:01:43;16.90;99.90
13856;DHT22;6998;53.608;9.958;2023-07-31T07:04:10;16.90;99.90
13856;DHT22;6998;53.608;9.958;2023-07-31T07:06:37;16.90;99.90
13856;DHT22;6998;53.608;9.958;2023-07-31T07:09:05;17.00;99.90
13856;DHT22;6998;53.608;9.958;2023-07-31T07:11:32;16.90;99.90
13856;DHT22;6998;53.608;9.958;2023-07-31T07:13:59;16.90;99.90
13856;DHT22;6998;53.608;9.958;2023-07-31T07:16:28;16.90;99.90
13856;DHT22;6998;53.608;9.958;2023-07-31T07:18:55;16.90;99.90
13856;DHT22;6998;53.608;9.958;2023-07-31T07:21:22;17.00;99.90
13856;DHT22;6998;53.608;9.958;2023-07-31T07:23:48;17.00;99.90
13856;DHT22;6998;53.608;9.958;2023-07-31T07:26:16;17.00;99.90
13856;DHT22;6998;53.608;9.958;2023-07-31T07:28:43;17.00;99.90
13856;DHT22;6998;53.608;9.958;2023-07-31T07:31:10;17.00;99.90
13856;DHT22;6998;53.608;9.958;2023-07-31T07:33:36;17.00;99.90
13856;DHT22;6998;53.608;9.958;2023-07-31T07:36:04;17.00;99.90
13856;DHT22;6998;53.608;9.958;2023-07-31T07:38:35;17.00;99.90
13856;DHT22;6998;53.608;9.958;2023-07-31T07:41:01;17.00;99.90
13856;DHT22;6998;53.608;9.958;2023-07-31T07:43:29;17.10;99.90
13856;DHT22;6998;53.608;9.958;2023-07-31T07:45:56;17.10;99.90
13856;DHT22;6998;53.608;9.958;2023-07-31T07:48:23;17.10;99.90
13856;DHT22;6998;53.608;9.958;2023-07-31T07:50:50;17.10;99.90
13856;DHT22;6998;53.608;9.958;2023-07-31T07:53:17;17.20;99.90
13856;DHT22;6998;53.608;9.958;2023-07-31T07:55:43;17.30;99.90
13856;DHT22;6998;53.608;9.958;2023-07-31T07:58:10;17.50;99.90
13856;DHT22;6998;53.608;9.958;2023-07-31T08:00:39;17.50;99.90
13856;DHT22;6998;53.608;9.958;2023-07-31T08:03:06;17.60;99.90
13856;DHT22;6998;53.608;9.958;2023-07-31T08:05:32;17.80;99.90
13856;DHT22;6998;53.608;9.958;2023-07-31T08:08:00;17.80;99.90
13856;DHT22;6998;53.608;9.958;2023-07-31T08:10:27;17.90;99.90
13856;DHT22;6998;53.608;9.958;2023-07-31T08:12:53;18.00;99.90
13856;DHT22;6998;53.608;9.958;2023-07-31T08:15:20;18.10;99.90
13856;DHT22;6998;53.608;9.958;2023-07-31T08:17:48;18.20;99.90
13856;DHT22;6998;53.608;9.958;2023-07-31T08:20:15;18.10;99.90
13856;DHT22;6998;53.608;9.958;2023-07-31T08:22:42;18.10;99.90
13856;DHT22;6998;53.608;9.958;2023-07-31T08:25:09;18.10;99.90
13856;DHT22;6998;53.608;9.958;2023-07-31T08:27:35;18.20;99.90
13856;DHT22;6998;53.608;9.958;2023-07-31T08:30:02;18.30;99.90
13856;DHT22;6998;53.608;9.958;2023-07-31T08:32:29;18.50;99.90
13856;DHT22;6998;53.608;9.958;2023-07-31T08:34:57;18.60;99.90
13856;DHT22;6998;53.608;9.958;2023-07-31T08:37:24;18.70;99.90
13856;DHT22;6998;53.608;9.958;2023-07-31T08:39:51;18.60;99.90
13856;DHT22;6998;53.608;9.958;2023-07-31T08:42:17;18.50;99.90
13856;DHT22;6998;53.608;9.958;2023-07-31T08:44:44;18.50;99.90
13856;DHT22;6998;53.608;9.958;2023-07-31T08:47:13;18.60;99.90
13856;DHT22;6998;53.608;9.958;2023-07-31T08:49:41;18.60;99.90
13856;DHT22;6998;53.608;9.958;2023-07-31T08:52:10;18.80;99.90
13856;DHT22;6998;53.608;9.958;2023-07-31T08:54:36;19.00;99.90
13856;DHT22;6998;53.608;9.958;2023-07-31T08:57:04;19.00;99.90
13856;DHT22;6998;53.608;9.958;2023-07-31T08:59:31;19.10;99.90
13856;DHT22;6998;53.608;9.958;2023-07-31T09:02:05;18.90;99.90
13856;DHT22;6998;53.608;9.958;2023-07-31T09:04:32;18.90;99.90
13856;DHT22;6998;53.608;9.958;2023-07-31T09:07:00;18.80;99.90
13856;DHT22;6998;53.608;9.958;2023-07-31T09:09:30;18.80;99.90
13856;DHT22;6998;53.608;9.958;2023-07-31T09:11:57;18.70;99.90
13856;DHT22;6998;53.608;9.958;2023-07-31T09:14:25;18.70;99.90
13856;DHT22;6998;53.608;9.958;2023-07-31T09:16:53;18.60;99.90
13856;DHT22;6998;53.608;9.958;2023-07-31T09:19:27;18.50;99.90
13856;DHT22;6998;53.608;9.958;2023-07-31T09:21:54;18.50;99.90
13856;DHT22;6998;53.608;9.958;2023-07-31T09:24:28;18.40;99.90
13856;DHT22;6998;53.608;9.958;2023-07-31T09:26:58;18.20;99.90
13856;DHT22;6998;53.608;9.958;2023-07-31T09:29:26;18.30;99.90
13856;DHT22;6998;53.608;9.958;2023-07-31T09:31:53;18.40;99.90
13856;DHT22;6998;53.608;9.958;2023-07-31T09:34:20;18.50;99.90
13856;DHT22;6998;53.608;9.958;2023-07-31T09:36:48;18.50;99.90
13856;DHT22;6998;53.608;9.958;2023-07-31T09:39:17;18.50;99.90
13856;DHT22;6998;53.608;9.958;2023-07-31T09:41:47;18.50;99.90
13856;DHT22;6998;53.608;9.958;2023-07-31T09:44:15;18.50;99.90
13856;DHT22;6998;53.608;9.958;2023-07-31T09:46:42;18.50;99.90
13856;DHT22;6998;53.608;9.958;2023-07-31T09:49:10;18.40;99.90
13856;DHT22;6998;53.608;9.958;2023-07-31T09:51:37;18.50;99.90
13856;DHT22;6998;53.608;9.958;2023-07-31T09:54:11;18.60;99.90
13856;DHT22;6998;53.608;9.958;2023-07-31T09:56:42;18.70;99.90
13856;DHT22;6998;53.608;9.958;2023-07-31T09:59:11;18.50;99.90
13856;DHT22;6998;53.608;9.958;2023-07-31T10:01:40;18.60;99.90
13856;DHT22;6998;53.608;9.958;2023-07-31T10:04:08;18.60;99.90
13856;DHT22;6998;53.608;9.958;2023-07-31T10:06:35;18.70;99.90
13856;DHT22;6998;53.608;9.958;2023-07-31T10:09:03;18.70;99.90
13856;DHT22;6998;53.608;9.958;2023-07-31T10:11:35;18.80;99.90
13856;DHT22;6998;53.608;9.958;2023-07-31T10:14:05;18.80;99.90
13856;DHT22;6998;53.608;9.958;2023-07-31T10:16:32;18.70;99.90
13856;DHT22;6998;53.608;9.958;2023-07-31T10:19:01;18.70;99.90
13856;DHT22;6998;53.608;9.958;2023-07-31T10:21:28;18.70;99.90
13856;DHT22;6998;53.608;9.958;2023-07-31T10:23:55;18.60;99.90
13856;DHT22;6998;53.608;9.958;2023-07-31T10:26:23;18.60;99.90
13856;DHT22;6998;53.608;9.958;2023-07-31T10:28:52;18.70;99.90
13856;DHT22;6998;53.608;9.958;2023-07-31T10:31:20;18.60;99.90
13856;DHT22;6998;53.608;9.958;2023-07-31T10:33:48;18.70;99.90
13856;DHT22;6998;53.608;9.958;2023-07-31T10:36:17;18.50;99.90
13856;DHT22;6998;53.608;9.958;2023-07-31T10:38:45;18.60;99.90
13856;DHT22;6998;53.608;9.958;2023-07-31T10:41:12;18.60;99.90
13856;DHT22;6998;53.608;9.958;2023-07-31T10:44:03;18.60;99.90
13856;DHT22;6998;53.608;9.958;2023-07-31T10:46:32;18.70;99.90
13856;DHT22;6998;53.608;9.958;2023-07-31T10:49:00;18.80;99.90
13856;DHT22;6998;53.608;9.958;2023-07-31T10:51:43;18.80;99.90
13856;DHT22;6998;53.608;9.958;2023-07-31T10:54:11;18.80;99.90
13856;DHT22;6998;53.608;9.958;2023-07-31T10:56:39;18.80;99.90
13856;DHT22;6998;53.608;9.958;2023-07-31T10:59:13;18.80;99.90
13856;DHT22;6998;53.608;9.958;2023-07-31T11:01:53;18.80;99.90
13856;DHT22;6998;53.608;9.958;2023-07-31T11:04:22;18.90;99.90
13856;DHT22;6998;53.608;9.958;2023-07-31T11:06:58;18.80;99.90
13856;DHT22;6998;53.608;9.958;2023-07-31T11:09:28;18.70;99.90
13856;DHT22;6998;53.608;9.958;2023-07-31T11:11:56;18.80;99.90
13856;DHT22;6998;53.608;9.958;2023-07-31T11:14:23;18.90;99.90
13856;DHT22;6998;53.608;9.958;2023-07-31T11:16:50;18.90;99.90
13856;DHT22;6998;53.608;9.958;2023-07-31T11:19:21;18.90;99.90
13856;DHT22;6998;53.608;9.958;2023-07-31T11:21:49;19.00;99.90
13856;DHT22;6998;53.608;9.958;2023-07-31T11:24:19;19.00;99.90
13856;DHT22;6998;53.608;9.958;2023-07-31T11:26:50;19.00;99.90
13856;DHT22;6998;53.608;9.958;2023-07-31T11:29:18;18.90;99.90
13856;DHT22;6998;53.608;9.958;2023-07-31T11:31:45;18.90;99.90
13856;DHT22;6998;53.608;9.958;2023-07-31T11:34:13;18.90;99.90
13856;DHT22;6998;53.608;9.958;2023-07-31T11:36:40;18.80;99.90
13856;DHT22;6998;53.608;9.958;2023-07-31T11:39:08;18.80;99.90
13856;DHT22;6998;53.608;9.958;2023-07-31T11:41:39;18.90;99.90
13856;DHT22;6998;53.608;9.958;2023-07-31T11:44:06;18.90;99.90
13856;DHT22;6998;53.608;9.958;2023-07-31T11:46:33;18.70;99.90
13856;DHT22;6998;53.608;9.958;2023-07-31T11:49:00;18.60;99.90
13856;DHT22;6998;53.608;9.958;2023-07-31T11:51:28;18.50;99.90
13856;DHT22;6998;53.608;9.958;2023-07-31T11:53:57;18.50;99.90
13856;DHT22;6998;53.608;9.958;2023-07-31T11:56:25;18.50;99.90
13856;DHT22;6998;53.608;9.958;2023-07-31T11:58:58;18.50;99.90
13856;DHT22;6998;53.608;9.958;2023-07-31T12:01:26;18.60;99.90
13856;DHT22;6998;53.608;9.958;2023-07-31T12:03:54;18.60;99.90
13856;DHT22;6998;53.608;9.958;2023-07-31T12:06:21;18.60;99.90
13856;DHT22;6998;53.608;9.958;2023-07-31T12:08:47;18.50;99.90
13856;DHT22;6998;53.608;9.958;2023-07-31T12:11:14;18.40;99.90
13856;DHT22;6998;53.608;9.958;2023-07-31T12:13:43;18.40;99.90
13856;DHT22;6998;53.608;9.958;2023-07-31T12:16:11;18.40;99.90
13856;DHT22;6998;53.608;9.958;2023-07-31T12:18:38;18.30;99.90
13856;DHT22;6998;53.608;9.958;2023-07-31T12:21:06;18.40;99.90
13856;DHT22;6998;53.608;9.958;2023-07-31T12:23:35;18.40;99.90
13856;DHT22;6998;53.608;9.958;2023-07-31T12:26:04;18.40;99.90
13856;DHT22;6998;53.608;9.958;2023-07-31T12:28:35;18.40;99.90
13856;DHT22;6998;53.608;9.958;2023-07-31T12:31:04;18.30;99.90
13856;DHT22;6998;53.608;9.958;2023-07-31T12:33:33;18.40;99.90
13856;DHT22;6998;53.608;9.958;2023-07-31T12:36:01;18.30;99.90
13856;DHT22;6998;53.608;9.958;2023-07-31T12:38:29;18.40;99.90
13856;DHT22;6998;53.608;9.958;2023-07-31T12:40:56;18.30;99.90
13856;DHT22;6998;53.608;9.958;2023-07-31T12:43:22;18.40;99.90
13856;DHT22;6998;53.608;9.958;2023-07-31T12:45:49;18.50;99.90
13856;DHT22;6998;53.608;9.958;2023-07-31T12:48:16;18.30;99.90
13856;DHT22;6998;53.608;9.958;2023-07-31T12:50:44;18.40;99.90
13856;DHT22;6998;53.608;9.958;2023-07-31T12:53:10;18.40;99.90
13856;DHT22;6998;53.608;9.958;2023-07-31T12:55:37;18.30;99.90
13856;DHT22;6998;53.608;9.958;2023-07-31T12:58:04;18.20;99.90
13856;DHT22;6998;53.608;9.958;2023-07-31T13:00:30;18.20;99.90
13856;DHT22;6998;53.608;9.958;2023-07-31T13:02:57;18.20;99.90
13856;DHT22;6998;53.608;9.958;2023-07-31T13:05:24;18.10;99.90
13856;DHT22;6998;53.608;9.958;2023-07-31T13:07:52;18.20;99.90
13856;DHT22;6998;53.608;9.958;2023-07-31T13:10:19;18.00;99.90
13856;DHT22;6998;53.608;9.958;2023-07-31T13:12:46;17.90;99.90
13856;DHT22;6998;53.608;9.958;2023-07-31T13:15:13;17.90;99.90
13856;DHT22;6998;53.608;9.958;2023-07-31T13:17:40;17.80;99.90
13856;DHT22;6998;53.608;9.958;2023-07-31T13:20:08;17.70;99.90
13856;DHT22;6998;53.608;9.958;2023-07-31T13:22:35;17.70;99.90
13856;DHT22;6998;53.608;9.958;2023-07-31T13:25:03;17.70;99.90
13856;DHT22;6998;53.608;9.958;2023-07-31T13:27:30;17.90;99.90
13856;DHT22;6998;53.608;9.958;2023-07-31T13:29:57;17.90;99.90
13856;DHT22;6998;53.608;9.958;2023-07-31T13:32:24;17.90;99.90
13856;DHT22;6998;53.608;9.958;2023-07-31T13:34:51;17.90;99.90
13856;DHT22;6998;53.608;9.958;2023-07-31T13:37:18;18.00;99.90
13856;DHT22;6998;53.608;9.958;2023-07-31T13:39:45;18.00;99.90
13856;DHT22;6998;53.608;9.958;2023-07-31T13:42:13;18.10;99.90
13856;DHT22;6998;53.608;9.958;2023-07-31T13:44:40;18.10;99.90
13856;DHT22;6998;53.608;9.958;2023-07-31T13:47:07;18.20;99.90
13856;DHT22;6998;53.608;9.958;2023-07-31T13:49:35;18.20;99.90
13856;DHT22;6998;53.608;9.958;2023-07-31T13:52:03;18.20;99.90
13856;DHT22;6998;53.608;9.958;2023-07-31T13:54:29;18.10;99.90
13856;DHT22;6998;53.608;9.958;2023-07-31T13:56:56;18.10;99.90
13856;DHT22;6998;53.608;9.958;2023-07-31T13:59:24;18.10;99.90
13856;DHT22;6998;53.608;9.958;2023-07-31T14:01:51;18.10;99.90
13856;DHT22;6998;53.608;9.958;2023-07-31T14:04:18;18.20;99.90
13856;DHT22;6998;53.608;9.958;2023-07-31T14:06:45;18.00;99.90
13856;DHT22;6998;53.608;9.958;2023-07-31T14:09:13;17.90;99.90
13856;DHT22;6998;53.608;9.958;2023-07-31T14:11:40;18.00;99.90
13856;DHT22;6998;53.608;9.958;2023-07-31T14:14:07;18.10;99.90
13856;DHT22;6998;53.608;9.958;2023-07-31T14:16:36;18.00;99.90
13856;DHT22;6998;53.608;9.958;2023-07-31T14:19:04;18.10;99.90
13856;DHT22;6998;53.608;9.958;2023-07-31T14:21:30;18.00;99.90
13856;DHT22;6998;53.608;9.958;2023-07-31T14:23:58;18.00;99.90
13856;DHT22;6998;53.608;9.958;2023-07-31T14:26:25;18.00;99.90
13856;DHT22;6998;53.608;9.958;2023-07-31T14:28:52;18.10;99.90
13856;DHT22;6998;53.608;9.958;2023-07-31T14:31:18;18.20;99.90
13856;DHT22;6998;53.608;9.958;2023-07-31T14:33:47;18.20;99.90
13856;DHT22;6998;53.608;9.958;2023-07-31T14:36:13;18.20;99.90
13856;DHT22;6998;53.608;9.958;2023-07-31T14:38:40;18.20;99.90
13856;DHT22;6998;53.608;9.958;2023-07-31T14:41:07;18.20;99.90
13856;DHT22;6998;53.608;9.958;2023-07-31T14:43:33;18.00;99.90
13856;DHT22;6998;53.608;9.958;2023-07-31T14:46:00;18.00;99.90
13856;DHT22;6998;53.608;9.958;2023-07-31T14:48:27;18.00;99.90
13856;DHT22;6998;53.608;9.958;2023-07-31T14:50:56;18.10;99.90
13856;DHT22;6998;53.608;9.958;2023-07-31T14:53:22;18.20;99.90
13856;DHT22;6998;53.608;9.958;2023-07-31T14:55:49;18.30;99.90
13856;DHT22;6998;53.608;9.958;2023-07-31T14:58:16;18.40;99.90
13856;DHT22;6998;53.608;9.958;2023-07-31T15:00:43;18.40;99.90
13856;DHT22;6998;53.608;9.958;2023-07-31T15:03:10;18.40;99.90
13856;DHT22;6998;53.608;9.958;2023-07-31T15:05:37;18.40;99.90
13856;DHT22;6998;53.608;9.958;2023-07-31T15:08:05;18.30;99.90
13856;DHT22;6998;53.608;9.958;2023-07-31T15:10:32;18.20;99.90
13856;DHT22;6998;53.608;9.958;2023-07-31T15:12:57;18.20;99.90
13856;DHT22;6998;53.608;9.958;2023-07-31T15:15:24;18.20;99.90
13856;DHT22;6998;53.608;9.958;2023-07-31T15:17:51;18.20;99.90
13856;DHT22;6998;53.608;9.958;2023-07-31T15:20:18;18.20;99.90
13856;DHT22;6998;53.608;9.958;2023-07-31T15:22:44;18.10;99.90
13856;DHT22;6998;53.608;9.958;2023-07-31T15:25:13;18.10;99.90
13856;DHT22;6998;53.608;9.958;2023-07-31T15:27:40;18.30;99.90
13856;DHT22;6998;53.608;9.958;2023-07-31T15:30:07;18.20;99.90
13856;DHT22;6998;53.608;9.958;2023-07-31T15:32:37;18.30;99.90
13856;DHT22;6998;53.608;9.958;2023-07-31T15:35:05;18.30;99.90
13856;DHT22;6998;53.608;9.958;2023-07-31T15:37:31;18.20;99.90
13856;DHT22;6998;53.608;9.958;2023-07-31T15:39:58;18.20;99.90
13856;DHT22;6998;53.608;9.958;2023-07-31T15:42:26;18.20;99.90
13856;DHT22;6998;53.608;9.958;2023-07-31T15:44:53;18.20;99.90
13856;DHT22;6998;53.608;9.958;2023-07-31T15:47:20;18.40;99.90